createdAt,value
2019-04-05T00:01:57.248Z,79.33
2019-04-05T00:04:26.639Z,78.97
2019-04-05T00:06:56.054Z,79.40
2019-04-05T00:09:25.441Z,79.20
2019-04-05T00:11:54.855Z,79.35
2019-04-05T00:14:24.222Z,79.30
2019-04-05T00:16:53.711Z,80.05
2019-04-05T00:19:23.114Z,80.16
2019-04-05T00:21:52.488Z,79.33
2019-04-05T00:24:21.868Z,79.91
2019-04-05T00:26:51.226Z,79.53
2019-04-05T00:29:20.657Z,79.66
2019-04-05T00:31:50.040Z,80.79
2019-04-05T00:34:19.420Z,81.15
2019-04-05T00:36:48.812Z,80.74
2019-04-05T00:39:18.192Z,80.80
2019-04-05T00:41:47.591Z,81.61
2019-04-05T00:44:16.965Z,82.11
2019-04-05T00:46:46.373Z,81.48
2019-04-05T00:49:15.937Z,81.20
2019-04-05T00:51:45.539Z,80.44
2019-04-05T00:54:14.907Z,80.17
2019-04-05T00:56:44.275Z,79.76
2019-04-05T00:59:13.680Z,79.89
2019-04-05T01:01:43.039Z,80.07
2019-04-05T01:04:12.437Z,79.35
2019-04-05T01:06:41.814Z,79.53
2019-04-05T01:09:11.294Z,79.77
2019-04-05T01:11:40.980Z,79.60
2019-04-05T01:14:10.725Z,78.74
2019-04-05T01:16:40.098Z,78.76
2019-04-05T01:19:09.803Z,77.90
2019-04-05T01:21:44.744Z,78.26
2019-04-05T01:24:15.531Z,77.56
2019-04-05T01:26:47.140Z,77.83
2019-04-05T01:29:17.022Z,77.86
2019-04-05T01:31:46.520Z,77.98
2019-04-05T01:34:16.095Z,78.10
2019-04-05T01:36:45.497Z,77.59
2019-04-05T01:39:14.892Z,77.49
2019-04-05T01:41:44.349Z,77.96
2019-04-05T01:44:14.054Z,76.91
2019-04-05T01:46:43.621Z,76.33
2019-04-05T01:49:13.039Z,77.13
2019-04-05T01:51:42.511Z,76.28
2019-04-05T01:54:11.919Z,75.95
2019-04-05T01:56:41.293Z,75.93
2019-04-05T01:59:10.676Z,75.84
2019-04-05T02:01:40.070Z,75.69
2019-04-05T02:04:09.437Z,75.86
2019-04-05T02:06:38.852Z,75.43
2019-04-05T02:09:11.699Z,74.91
2019-04-05T02:11:41.288Z,75.38
2019-04-05T02:14:11.156Z,75.52
2019-04-05T02:16:40.658Z,75.61
2019-04-05T02:19:10.466Z,75.60
2019-04-05T02:21:39.934Z,76.42
2019-04-05T02:24:09.394Z,76.63
2019-04-05T02:26:38.879Z,76.17
2019-04-05T02:29:08.594Z,76.85
2019-04-05T02:31:37.975Z,76.30
2019-04-05T02:34:07.360Z,76.79
2019-04-05T02:36:37.026Z,76.22
2019-04-05T02:39:08.378Z,76.11
2019-04-05T02:41:39.269Z,76.21
2019-04-05T02:44:11.447Z,76.35
2019-04-05T02:46:42.308Z,76.29
2019-04-05T02:49:13.301Z,76.44
2019-04-05T02:51:44.197Z,77.09
2019-04-05T02:54:15.175Z,77.49
2019-04-05T02:56:45.221Z,76.50
2019-04-05T02:59:16.195Z,77.14
2019-04-05T03:01:45.791Z,76.89
2019-04-05T03:04:15.465Z,77.10
2019-04-05T03:06:46.048Z,77.72
2019-04-05T03:09:16.066Z,77.49
2019-04-05T03:11:45.440Z,76.62
2019-04-05T03:14:15.958Z,76.45
2019-04-05T03:16:48.238Z,76.57
2019-04-05T03:19:23.932Z,77.05
2019-04-05T03:21:58.439Z,77.04
2019-04-05T03:24:31.938Z,76.54
2019-04-05T03:27:09.990Z,75.51
2019-04-05T03:29:39.709Z,75.65
2019-04-05T03:32:09.554Z,76.48
2019-04-05T03:34:40.073Z,76.70
2019-04-05T03:37:10.039Z,76.52
2019-04-05T03:39:39.625Z,76.98
2019-04-05T03:42:10.028Z,77.10
2019-04-05T03:44:39.551Z,77.42
2019-04-05T03:47:08.951Z,77.77
2019-04-05T03:49:38.522Z,78.11
2019-04-05T03:52:08.169Z,77.72
2019-04-05T03:54:38.127Z,77.13
2019-04-05T03:57:08.297Z,77.73
2019-04-05T03:59:37.891Z,78.01
2019-04-05T04:02:07.330Z,77.73
2019-04-05T04:04:36.731Z,78.82
2019-04-05T04:07:06.614Z,78.14
2019-04-05T04:09:36.008Z,78.01
2019-04-05T04:12:05.610Z,77.78
2019-04-05T04:14:36.001Z,78.26
2019-04-05T04:17:12.980Z,78.04
2019-04-05T04:19:38.597Z,78.56
2019-04-05T04:22:30.065Z,79.32
2019-04-05T04:25:00.166Z,78.64
2019-04-05T04:27:31.136Z,79.12
2019-04-05T04:30:00.839Z,79.15
2019-04-05T04:32:30.829Z,79.17
2019-04-05T04:35:00.286Z,79.44
2019-04-05T04:37:29.886Z,79.74
2019-04-05T04:39:59.574Z,80.19
2019-04-05T04:42:29.372Z,81.09
2019-04-05T04:45:11.364Z,80.70
2019-04-05T04:47:31.484Z,80.50
2019-04-05T04:50:01.075Z,80.61
2019-04-05T04:52:32.054Z,80.79
2019-04-05T04:55:01.663Z,79.93
2019-04-05T04:57:31.329Z,79.63
2019-04-05T05:00:01.038Z,80.07
2019-04-05T05:02:31.004Z,79.96
2019-04-05T05:05:00.492Z,79.60
2019-04-05T05:07:30.120Z,79.85
2019-04-05T05:10:03.006Z,80.00
2019-04-05T05:12:31.278Z,80.85
2019-04-05T05:15:00.869Z,80.97
2019-04-05T05:17:38.404Z,80.75
2019-04-05T05:20:01.471Z,80.96
2019-04-05T05:22:31.518Z,80.92
2019-04-05T05:25:01.710Z,80.50
2019-04-05T05:27:31.417Z,80.79
2019-04-05T05:30:00.832Z,81.22
2019-04-05T05:32:30.383Z,81.45
2019-04-05T05:35:02.225Z,81.38
2019-04-05T05:37:32.952Z,81.01
2019-04-05T05:40:02.628Z,81.24
2019-04-05T05:42:32.099Z,81.05
2019-04-05T05:45:01.529Z,81.03
2019-04-05T05:47:31.101Z,80.01
2019-04-05T05:50:00.450Z,79.94
2019-04-05T05:52:29.945Z,79.56
2019-04-05T05:54:59.392Z,79.47
2019-04-05T05:57:28.835Z,79.26
2019-04-05T05:59:58.487Z,79.75
2019-04-05T06:02:29.323Z,79.79
2019-04-05T06:04:58.699Z,79.96
2019-04-05T06:07:28.270Z,80.78
2019-04-05T06:09:57.722Z,82.25
2019-04-05T06:12:27.174Z,81.97
2019-04-05T06:14:56.653Z,83.52
2019-04-05T06:17:26.112Z,84.70
2019-04-05T06:19:55.697Z,84.67
2019-04-05T06:22:25.164Z,84.15
2019-04-05T06:24:54.565Z,83.76
2019-04-05T06:27:23.921Z,83.56
2019-04-05T06:29:53.323Z,82.86
2019-04-05T06:32:22.708Z,81.62
2019-04-05T06:34:52.102Z,81.98
2019-04-05T06:37:21.557Z,82.24
2019-04-05T06:39:50.944Z,82.61
2019-04-05T06:42:20.331Z,81.59
2019-04-05T06:44:49.813Z,81.53
2019-04-05T06:47:19.232Z,80.92
2019-04-05T06:49:48.623Z,81.13
2019-04-05T06:52:18.029Z,81.54
2019-04-05T06:54:47.716Z,83.02
2019-04-05T06:57:17.355Z,82.65
2019-04-05T06:59:46.886Z,82.71
2019-04-05T07:02:18.426Z,82.09
2019-04-05T07:04:47.400Z,81.29
2019-04-05T07:07:17.951Z,81.61
2019-04-05T07:09:47.570Z,80.65
2019-04-05T07:12:16.997Z,82.40
2019-04-05T07:14:46.563Z,83.20
2019-04-05T07:17:15.917Z,81.03
2019-04-05T07:19:45.428Z,80.22
2019-04-05T07:22:16.365Z,80.33
2019-04-05T07:24:45.851Z,80.73
2019-04-05T07:27:15.363Z,80.13
2019-04-05T07:29:44.914Z,78.67
2019-04-05T07:32:14.491Z,78.69
2019-04-05T07:34:43.928Z,78.69
2019-04-05T07:37:13.890Z,78.39
2019-04-05T07:39:43.328Z,78.21
2019-04-05T07:42:12.717Z,77.40
2019-04-05T07:44:42.083Z,77.40
2019-04-05T07:47:11.489Z,78.27
2019-04-05T07:49:40.978Z,78.64
2019-04-05T07:52:12.905Z,79.00
2019-04-05T07:54:41.493Z,78.71
2019-04-05T07:57:10.861Z,78.88
2019-04-05T07:59:40.256Z,79.24
2019-04-05T08:02:09.636Z,78.90
2019-04-05T08:04:39.040Z,77.96
2019-04-05T08:07:08.707Z,78.63
2019-04-05T08:09:39.686Z,77.54
2019-04-05T08:12:09.230Z,77.54
2019-04-05T08:14:40.001Z,77.88
2019-04-05T08:17:09.481Z,77.75
2019-04-05T08:19:38.888Z,78.07
2019-04-05T08:22:08.287Z,77.57
2019-04-05T08:24:38.730Z,77.95
2019-04-05T08:27:08.157Z,76.94
2019-04-05T08:29:37.605Z,76.94
2019-04-05T08:32:14.316Z,79.14
2019-04-05T08:34:38.659Z,78.73
2019-04-05T08:37:08.657Z,78.18
2019-04-05T08:39:38.040Z,78.02
2019-04-05T08:42:10.586Z,77.79
2019-04-05T08:44:38.673Z,77.56
2019-04-05T08:47:08.119Z,77.56
2019-04-05T08:49:37.560Z,76.23
2019-04-05T08:52:07.006Z,76.75
2019-04-05T08:54:36.850Z,76.75
2019-04-05T08:57:08.235Z,76.78
2019-04-05T08:59:37.629Z,76.21
2019-04-05T09:02:07.017Z,76.21
2019-04-05T09:04:37.408Z,76.42
2019-04-05T09:07:08.999Z,76.63
2019-04-05T09:09:38.364Z,75.78
2019-04-05T09:12:07.784Z,75.44
2019-04-05T09:14:37.766Z,74.44
2019-04-05T09:17:07.511Z,75.00
2019-04-05T09:19:37.853Z,74.45
2019-04-05T09:22:07.711Z,74.45
2019-04-05T09:24:37.899Z,73.86
2019-04-05T09:27:08.161Z,74.43
2019-04-05T09:29:38.244Z,74.43
2019-04-05T09:32:08.353Z,74.69
2019-04-05T09:34:38.285Z,74.29
2019-04-05T09:37:08.296Z,73.97
2019-04-05T09:39:38.425Z,73.97
2019-04-05T09:42:08.182Z,74.23
2019-04-05T09:44:38.187Z,74.84
2019-04-05T09:47:08.373Z,74.84
2019-04-05T09:49:38.220Z,74.84
2019-04-05T09:52:08.307Z,75.07
2019-04-05T09:54:38.461Z,73.39
2019-04-05T09:57:08.718Z,74.98
2019-04-05T09:59:38.908Z,74.98
2019-04-05T10:02:09.126Z,74.74
2019-04-05T10:04:39.270Z,74.04
2019-04-05T10:07:09.577Z,74.04
2019-04-05T10:09:39.532Z,74.02
2019-04-05T10:12:09.614Z,73.60
2019-04-05T10:14:39.810Z,73.81
2019-04-05T10:17:09.882Z,72.70
2019-04-05T10:19:49.654Z,72.70
2019-04-05T10:22:11.825Z,72.34
2019-04-05T10:24:42.063Z,72.04
2019-04-05T10:27:12.192Z,72.92
2019-04-05T10:29:42.251Z,71.83
2019-04-05T10:32:12.264Z,71.95
2019-04-05T10:34:42.213Z,72.17
2019-04-05T10:37:11.558Z,72.27
2019-04-05T10:39:40.960Z,71.80
2019-04-05T10:42:26.647Z,72.26
2019-04-05T10:44:56.072Z,72.36
2019-04-05T10:47:25.475Z,71.41
2019-04-05T10:50:02.976Z,71.26
2019-04-05T10:52:27.232Z,70.94
2019-04-05T10:54:58.074Z,72.09
2019-04-05T10:57:27.668Z,69.03
2019-04-05T10:59:57.059Z,68.31
2019-04-05T11:02:26.470Z,67.41
2019-04-05T11:04:55.834Z,68.38
2019-04-05T11:07:25.401Z,67.41
2019-04-05T11:09:54.796Z,65.84
2019-04-05T11:12:26.045Z,65.69
2019-04-05T11:14:55.986Z,63.93
2019-04-05T11:17:26.093Z,64.07
2019-04-05T11:19:56.272Z,64.50
2019-04-05T11:22:27.815Z,63.84
2019-04-05T11:24:57.940Z,64.28
2019-04-05T11:27:28.097Z,63.96
2019-04-05T11:29:58.286Z,63.70
2019-04-05T11:32:28.484Z,62.86
2019-04-05T11:34:58.799Z,62.15
2019-04-05T11:37:29.491Z,62.05
2019-04-05T11:40:00.084Z,61.83
2019-04-05T11:42:33.058Z,62.43
2019-04-05T11:45:04.270Z,61.25
2019-04-05T11:47:34.832Z,61.89
2019-04-05T11:50:06.387Z,62.43
2019-04-05T11:52:36.943Z,61.62
2019-04-05T11:55:07.055Z,60.93
2019-04-05T11:57:37.115Z,60.20
2019-04-05T12:00:12.558Z,60.81
2019-04-05T12:02:56.733Z,60.26
2019-04-05T12:05:27.333Z,61.08
2019-04-05T12:08:01.028Z,60.70
2019-04-05T12:10:31.970Z,60.59
2019-04-05T12:13:01.311Z,60.90
2019-04-05T12:15:33.544Z,61.58
2019-04-05T12:18:04.545Z,63.60
2019-04-05T12:20:47.806Z,61.89
2019-04-05T12:23:07.514Z,59.86
2019-04-05T12:25:37.703Z,59.15
2019-04-05T12:28:10.584Z,59.13
2019-04-05T12:30:41.044Z,59.97
2019-04-05T12:33:14.505Z,59.88
2019-04-05T12:35:41.803Z,62.32
2019-04-05T12:38:12.859Z,60.93
2019-04-05T12:40:42.327Z,62.02
2019-04-05T12:43:13.591Z,62.53
2019-04-05T12:45:44.651Z,62.43
2019-04-05T12:48:15.912Z,63.84
2019-04-05T12:50:45.456Z,62.50
2019-04-05T12:53:15.071Z,61.88
2019-04-05T12:55:44.446Z,62.66
2019-04-05T12:58:13.822Z,62.41
2019-04-05T13:00:43.226Z,61.69
2019-04-05T13:03:12.597Z,60.77
2019-04-05T13:05:42.020Z,60.59
2019-04-05T13:08:11.397Z,61.06
2019-04-05T13:10:40.801Z,59.37
2019-04-05T13:13:10.206Z,59.75
2019-04-05T13:15:40.233Z,60.86
2019-04-05T13:18:10.183Z,60.37
2019-04-05T13:20:39.541Z,55.36
2019-04-05T13:23:08.942Z,49.73
2019-04-05T13:25:38.853Z,48.85
2019-04-05T13:28:13.497Z,42.86
2019-04-05T13:30:40.622Z,42.77
2019-04-05T13:33:10.000Z,44.48
2019-04-05T13:35:39.397Z,47.43
2019-04-05T13:38:08.840Z,49.60
2019-04-05T13:40:38.982Z,50.53
2019-04-05T13:43:08.453Z,48.90
2019-04-05T13:45:38.021Z,50.76
2019-04-05T13:48:09.026Z,51.99
2019-04-05T13:50:41.416Z,51.92
2019-04-05T13:53:11.359Z,52.75
2019-04-05T13:55:41.386Z,54.21
2019-04-05T13:58:12.035Z,54.07
2019-04-05T14:00:41.451Z,54.83
2019-04-05T14:03:10.834Z,54.57
2019-04-05T14:05:40.235Z,56.37
2019-04-05T14:08:10.859Z,56.11
2019-04-05T14:10:41.899Z,56.19
2019-04-05T14:13:11.437Z,56.46
2019-04-05T14:15:42.326Z,56.81
2019-04-05T14:18:14.510Z,58.36
2019-04-05T14:20:43.113Z,57.62
2019-04-05T14:23:12.538Z,58.74
2019-04-05T14:25:41.918Z,57.77
2019-04-05T14:28:11.330Z,57.21
2019-04-05T14:30:40.928Z,57.21
2019-04-05T14:33:10.531Z,55.85
2019-04-05T14:35:39.907Z,56.80
2019-04-05T14:38:11.621Z,55.82
2019-04-05T14:40:40.411Z,56.38
2019-04-05T14:43:09.781Z,55.22
2019-04-05T14:45:39.187Z,55.69
2019-04-05T14:48:08.659Z,55.92
2019-04-05T14:50:38.079Z,57.46
2019-04-05T14:53:07.464Z,57.55
2019-04-05T14:55:36.822Z,56.09
2019-04-05T14:58:06.360Z,55.99
2019-04-05T15:00:35.729Z,55.97
2019-04-05T15:03:05.143Z,54.86
2019-04-05T15:05:34.505Z,55.50
2019-04-05T15:08:03.893Z,55.95
2019-04-05T15:10:33.253Z,55.25
2019-04-05T15:13:02.888Z,54.80
2019-04-05T15:15:32.242Z,55.27
2019-04-05T15:18:02.678Z,53.89
2019-04-05T15:20:34.788Z,54.25
2019-04-05T15:23:04.758Z,53.71
2019-04-05T15:25:34.877Z,55.20
2019-04-05T15:28:05.194Z,53.98
2019-04-05T15:30:35.621Z,53.76
2019-04-05T15:33:05.994Z,53.40
2019-04-05T15:35:36.125Z,53.40
2019-04-05T15:38:06.162Z,53.91
2019-04-05T15:40:36.940Z,54.78
2019-04-05T15:43:07.373Z,55.25
2019-04-05T15:45:37.538Z,55.17
2019-04-05T15:48:07.600Z,56.34
2019-04-05T15:50:37.778Z,55.88
2019-04-05T15:53:07.849Z,55.69
2019-04-05T15:55:37.924Z,55.77
2019-04-05T15:58:08.063Z,57.58
2019-04-05T16:00:43.172Z,56.00
2019-04-05T16:03:14.054Z,55.92
2019-04-05T16:05:44.691Z,55.40
2019-04-05T16:08:16.928Z,54.99
2019-04-05T16:10:46.905Z,54.81
2019-04-05T16:13:16.948Z,54.51
2019-04-05T16:15:47.279Z,54.34
2019-04-05T16:18:17.438Z,53.55
2019-04-05T16:20:47.510Z,52.66
2019-04-05T16:23:17.632Z,52.46
2019-04-05T16:25:47.674Z,52.79
2019-04-05T16:28:17.909Z,52.54
2019-04-05T16:30:48.007Z,52.91
2019-04-05T16:33:18.529Z,53.43
2019-04-05T16:35:48.542Z,52.90
2019-04-05T16:38:18.568Z,53.91
2019-04-05T16:40:49.439Z,53.66
2019-04-05T16:43:18.789Z,52.22
2019-04-05T16:45:48.196Z,54.59
2019-04-05T16:48:17.649Z,53.91
2019-04-05T16:50:47.051Z,53.80
2019-04-05T16:53:16.476Z,53.90
2019-04-05T16:55:45.812Z,53.33
2019-04-05T16:58:15.208Z,53.93
2019-04-05T17:00:44.609Z,53.80
2019-04-05T17:03:14.002Z,53.83
2019-04-05T17:05:43.394Z,54.39
2019-04-05T17:08:12.795Z,54.56
2019-04-05T17:10:42.203Z,55.58
2019-04-05T17:13:11.981Z,55.19
2019-04-05T17:15:41.554Z,54.57
2019-04-05T17:18:10.923Z,55.11
2019-04-05T17:20:40.298Z,56.12
2019-04-05T17:23:09.799Z,56.83
2019-04-05T17:25:39.155Z,56.22
2019-04-05T17:28:08.775Z,56.73
2019-04-05T17:30:38.278Z,56.95
2019-04-05T17:33:07.694Z,58.04
2019-04-05T17:35:37.149Z,58.27
2019-04-05T17:38:06.588Z,58.54
2019-04-05T17:40:36.404Z,58.57
2019-04-05T17:43:05.885Z,58.48
2019-04-05T17:45:35.268Z,58.51
2019-04-05T17:48:04.666Z,59.30
2019-04-05T17:50:35.523Z,58.93
2019-04-05T17:53:12.735Z,60.51
2019-04-05T17:55:36.481Z,61.10
2019-04-05T17:58:07.081Z,61.12
2019-04-05T18:00:36.809Z,60.01
2019-04-05T18:03:08.093Z,60.19
2019-04-05T18:05:37.576Z,61.37
2019-04-05T18:08:07.215Z,60.46
2019-04-05T18:10:37.246Z,60.35
2019-04-05T18:13:06.642Z,60.81
2019-04-05T18:15:36.149Z,61.98
2019-04-05T18:18:05.603Z,62.51
2019-04-05T18:20:35.002Z,62.43
2019-04-05T18:23:04.492Z,62.16
2019-04-05T18:25:33.917Z,63.38
2019-04-05T18:28:03.343Z,63.48
2019-04-05T18:30:32.775Z,63.19
2019-04-05T18:33:02.268Z,63.76
2019-04-05T18:35:31.783Z,63.51
2019-04-05T18:38:01.175Z,64.34
2019-04-05T18:40:39.857Z,64.63
2019-04-05T18:43:01.930Z,65.11
2019-04-05T18:45:33.577Z,65.47
2019-04-05T18:48:03.947Z,65.83
2019-04-05T18:50:34.262Z,65.83
2019-04-05T18:53:04.533Z,66.21
2019-04-05T18:55:34.703Z,65.88
2019-04-05T18:58:04.975Z,66.41
2019-04-05T19:00:35.131Z,66.48
2019-04-05T19:03:05.441Z,66.59
2019-04-05T19:05:35.692Z,67.28
2019-04-05T19:08:06.182Z,66.69
2019-04-05T19:10:37.462Z,67.05
2019-04-05T19:13:07.613Z,67.40
2019-04-05T19:15:37.961Z,67.65
2019-04-05T19:18:08.125Z,67.45
2019-04-05T19:20:38.105Z,67.05
2019-04-05T19:23:08.187Z,66.89
2019-04-05T19:25:38.419Z,67.04
2019-04-05T19:28:08.588Z,67.31
2019-04-05T19:50:53.913Z,66.85
2019-04-05T19:53:24.207Z,66.95
2019-04-05T19:55:54.276Z,67.10
2019-04-05T19:58:24.612Z,67.39
2019-04-05T20:00:54.940Z,67.68
2019-04-05T20:03:24.299Z,67.52
2019-04-05T20:05:53.807Z,68.30
2019-04-05T20:08:23.220Z,68.42
2019-04-05T20:10:52.647Z,68.74
2019-04-05T20:13:22.031Z,68.75
2019-04-05T20:15:51.412Z,68.07
2019-04-05T20:18:20.931Z,68.62
2019-04-05T20:20:50.315Z,68.16
2019-04-05T20:23:19.716Z,68.77
2019-04-05T20:25:49.124Z,68.68
2019-04-05T20:28:18.534Z,68.68
2019-04-05T20:30:48.049Z,69.36
2019-04-05T20:33:17.486Z,69.36
2019-04-05T20:35:46.922Z,69.31
2019-04-05T20:38:16.296Z,69.29
2019-04-05T20:40:45.712Z,69.77
2019-04-05T20:43:15.105Z,69.22
2019-04-05T20:45:44.546Z,69.18
2019-04-05T20:48:13.939Z,69.28
2019-04-05T20:50:43.315Z,69.33
2019-04-05T20:53:12.792Z,69.31
2019-04-05T20:55:42.419Z,68.76
2019-04-05T20:58:11.933Z,68.18
2019-04-05T21:00:41.310Z,68.18
2019-04-05T21:03:10.813Z,68.17
2019-04-05T21:05:40.210Z,68.46
2019-04-05T21:08:09.594Z,67.81
2019-04-05T21:10:39.031Z,68.56
2019-04-05T21:13:08.471Z,69.81
2019-04-05T21:15:37.890Z,69.38
2019-04-05T21:18:07.345Z,69.80
2019-04-05T21:20:36.765Z,70.02
2019-04-05T21:23:06.239Z,68.31
2019-04-05T21:25:35.666Z,68.48
2019-04-05T21:28:05.058Z,67.95
2019-04-05T21:30:34.449Z,67.43
2019-04-05T21:33:03.901Z,68.71
2019-04-05T21:35:33.294Z,69.81
2019-04-05T21:38:02.727Z,69.73
2019-04-05T21:40:32.105Z,70.91
2019-04-05T21:43:01.500Z,71.03
2019-04-05T21:45:31.009Z,70.73
2019-04-05T21:48:00.396Z,70.74
2019-04-05T21:50:29.898Z,70.77
2019-04-05T21:52:59.264Z,70.99
2019-04-05T21:55:28.719Z,71.29
2019-04-05T21:57:58.088Z,71.20
2019-04-05T22:00:33.582Z,71.09
2019-04-05T22:03:03.057Z,71.57
2019-04-05T22:05:32.451Z,71.81
2019-04-05T22:08:01.951Z,71.83
2019-04-05T22:10:31.424Z,72.35
2019-04-05T22:13:00.810Z,72.32
2019-04-05T22:15:30.234Z,72.57
2019-04-05T22:17:59.652Z,72.66
2019-04-05T22:20:29.027Z,72.51
2019-04-05T22:22:58.397Z,72.37
2019-04-05T22:25:27.796Z,72.70
2019-04-05T22:27:57.302Z,72.76
2019-04-05T22:30:26.716Z,72.94
2019-04-05T22:32:56.191Z,73.14
2019-04-05T22:35:25.617Z,73.05
2019-04-05T22:37:55.022Z,73.17
2019-04-05T22:40:24.422Z,73.42
2019-04-05T22:42:53.844Z,73.32
2019-04-05T22:45:23.219Z,73.57
2019-04-05T22:47:52.619Z,73.82
2019-04-05T22:50:22.000Z,73.33
2019-04-05T22:52:51.416Z,73.27
2019-04-05T22:55:20.814Z,72.94
2019-04-05T22:57:50.273Z,73.39
2019-04-05T23:00:19.662Z,73.39
2019-04-05T23:02:49.049Z,72.73
2019-04-05T23:05:18.447Z,72.73
2019-04-05T23:07:47.862Z,73.30
2019-04-05T23:10:18.556Z,73.26
2019-04-05T23:12:47.930Z,73.16
2019-04-05T23:15:17.300Z,72.92
2019-04-05T23:17:46.711Z,72.92
2019-04-05T23:20:16.292Z,73.38
2019-04-05T23:22:45.686Z,72.83
2019-04-05T23:25:21.931Z,72.83
2019-04-05T23:27:46.182Z,73.22
2019-04-05T23:30:16.345Z,73.14
2019-04-05T23:32:45.725Z,73.13
2019-04-05T23:35:15.165Z,73.13
2019-04-05T23:37:44.541Z,72.73
2019-04-05T23:40:14.236Z,72.89
2019-04-05T23:42:43.618Z,72.88
2019-04-05T23:45:13.459Z,73.28
2019-04-05T23:47:42.878Z,73.85
2019-04-05T23:50:13.877Z,73.85
2019-04-05T23:52:43.276Z,74.78
2019-04-05T23:55:12.643Z,74.78
2019-04-05T23:57:42.032Z,74.62
